Time;durP1;ratioP1;P1;durP2;ratioP2;P2;SDS_P1;SDS_P2;PMS_P1;PMS_P2;Temp;Humidity;BMP_temperature;BMP_pressure;BME280_temperature;BME280_humidity;BME280_pressure;Samples;Min_cycle;Max_cycle;Signal;HPM_P1;HPM_P2
2023/06/28 00:00:45;;;;;;;;;;;23.10;49.40;;;;;;5076337;28;19941;-63
2023/06/28 00:03:13;;;;;;;;;;;23.00;49.40;;;;;;5094259;28;20010;-63
2023/06/28 00:05:39;;;;;;;;;;;23.10;49.50;;;;;;5076145;28;19998;-62
2023/06/28 00:08:04;;;;;;;;;;;23.00;49.40;;;;;;5075879;28;20010;-62
2023/06/28 00:10:30;;;;;;;;;;;23.00;49.40;;;;;;5076422;28;19916;-62
2023/06/28 00:12:55;;;;;;;;;;;23.00;49.50;;;;;;5093900;28;20386;-62
2023/06/28 00:15:21;;;;;;;;;;;23.00;49.40;;;;;;5094058;28;19959;-62
2023/06/28 00:17:46;;;;;;;;;;;23.00;49.50;;;;;;5075981;28;19916;-62
2023/06/28 00:20:12;;;;;;;;;;;23.00;49.50;;;;;;5076025;28;19916;-62
2023/06/28 00:22:39;;;;;;;;;;;23.00;49.60;;;;;;5075407;28;20358;-62
2023/06/28 00:25:05;;;;;;;;;;;23.00;49.60;;;;;;5093638;28;19990;-62
2023/06/28 00:27:31;;;;;;;;;;;22.90;49.50;;;;;;5075418;28;19924;-62
2023/06/28 00:29:57;;;;;;;;;;;22.90;49.50;;;;;;5075443;28;19926;-62
2023/06/28 00:32:23;;;;;;;;;;;22.90;49.50;;;;;;5075349;28;19923;-62
2023/06/28 00:34:49;;;;;;;;;;;22.90;49.50;;;;;;5075666;28;19976;-62
2023/06/28 00:37:15;;;;;;;;;;;22.90;49.60;;;;;;5075248;28;19916;-62
2023/06/28 00:39:40;;;;;;;;;;;22.90;49.60;;;;;;5093664;28;19918;-62
2023/06/28 00:42:06;;;;;;;;;;;22.90;49.60;;;;;;5075257;28;20418;-62
2023/06/28 00:44:31;;;;;;;;;;;22.90;49.60;;;;;;5075426;28;19923;-62
2023/06/28 00:46:57;;;;;;;;;;;22.90;49.70;;;;;;5075078;28;19969;-62
2023/06/28 00:49:23;;;;;;;;;;;22.90;49.70;;;;;;5075059;28;19916;-62
2023/06/28 00:51:50;;;;;;;;;;;22.90;49.70;;;;;;5093284;28;19938;-62
2023/06/28 00:54:16;;;;;;;;;;;22.90;49.70;;;;;;5093095;28;19927;-62
2023/06/28 00:56:42;;;;;;;;;;;22.90;49.70;;;;;;5074957;28;19920;-62
2023/06/28 00:59:07;;;;;;;;;;;22.80;49.70;;;;;;5093152;28;20010;-62
2023/06/28 01:01:34;;;;;;;;;;;22.80;49.70;;;;;;5093196;28;20002;-62
2023/06/28 01:04:02;;;;;;;;;;;22.80;49.70;;;;;;5074861;28;19916;-62
2023/06/28 01:06:31;;;;;;;;;;;22.80;49.70;;;;;;5075071;28;19975;-64
2023/06/28 01:08:57;;;;;;;;;;;22.80;49.70;;;;;;5074154;28;19920;-62
2023/06/28 01:11:22;;;;;;;;;;;22.80;49.70;;;;;;5074812;28;19916;-62
2023/06/28 01:13:48;;;;;;;;;;;22.80;49.70;;;;;;5074964;28;19916;-62
2023/06/28 01:16:13;;;;;;;;;;;22.80;49.70;;;;;;5092835;28;19927;-63
2023/06/28 01:18:39;;;;;;;;;;;22.80;49.80;;;;;;5091814;28;19923;-62
2023/06/28 01:21:07;;;;;;;;;;;22.80;49.80;;;;;;5074591;28;19920;-62
2023/06/28 01:23:33;;;;;;;;;;;22.80;49.80;;;;;;5091321;28;19916;-62
2023/06/28 01:26:02;;;;;;;;;;;22.80;49.80;;;;;;5092418;28;19978;-62
2023/06/28 01:28:30;;;;;;;;;;;22.80;49.80;;;;;;5057595;28;22081;-62
2023/06/28 01:30:57;;;;;;;;;;;22.80;49.80;;;;;;5074884;28;19916;-62
2023/06/28 01:33:22;;;;;;;;;;;22.80;49.80;;;;;;5092668;28;19923;-62
2023/06/28 01:35:48;;;;;;;;;;;22.70;49.80;;;;;;5092533;28;19916;-62
2023/06/28 01:38:14;;;;;;;;;;;22.70;49.80;;;;;;5074695;28;19923;-62
2023/06/28 01:40:40;;;;;;;;;;;22.70;49.80;;;;;;5092728;28;19938;-62
2023/06/28 01:43:06;;;;;;;;;;;22.70;49.80;;;;;;5074721;28;19916;-62
2023/06/28 01:45:32;;;;;;;;;;;22.70;49.80;;;;;;5092262;28;19916;-62
2023/06/28 01:47:57;;;;;;;;;;;22.70;49.90;;;;;;5089849;28;20382;-62
2023/06/28 01:50:23;;;;;;;;;;;22.70;49.90;;;;;;5091345;28;19916;-62
2023/06/28 01:52:49;;;;;;;;;;;22.60;49.80;;;;;;5074494;28;20390;-62
2023/06/28 01:55:14;;;;;;;;;;;22.70;49.90;;;;;;5092295;28;19922;-62
2023/06/28 01:57:40;;;;;;;;;;;22.60;49.90;;;;;;5074237;28;19916;-62
2023/06/28 02:00:08;;;;;;;;;;;22.60;49.90;;;;;;5057796;28;19916;-62
2023/06/28 02:02:35;;;;;;;;;;;22.60;49.90;;;;;;5074356;28;19965;-62
2023/06/28 02:05:00;;;;;;;;;;;22.60;49.90;;;;;;5074470;28;20263;-61
2023/06/28 02:07:26;;;;;;;;;;;22.60;49.90;;;;;;5074121;28;20003;-62
2023/06/28 02:09:51;;;;;;;;;;;22.60;49.90;;;;;;5092390;28;19916;-62
2023/06/28 02:12:17;;;;;;;;;;;22.60;50.00;;;;;;5092295;28;19916;-62
2023/06/28 02:14:42;;;;;;;;;;;22.60;49.90;;;;;;5074412;28;19968;-62
2023/06/28 02:17:13;;;;;;;;;;;22.60;50.00;;;;;;5074477;28;19916;-62
2023/06/28 02:19:39;;;;;;;;;;;22.60;50.00;;;;;;5093790;28;19916;-62
2023/06/28 02:22:05;;;;;;;;;;;22.50;50.00;;;;;;5078130;28;19973;-62
2023/06/28 02:24:30;;;;;;;;;;;22.50;50.00;;;;;;5077649;28;19928;-62
2023/06/28 02:26:56;;;;;;;;;;;22.50;50.10;;;;;;5077642;28;19920;-62
2023/06/28 02:29:21;;;;;;;;;;;22.50;50.00;;;;;;5096150;28;19916;-62
2023/06/28 02:31:47;;;;;;;;;;;22.50;50.10;;;;;;5077748;28;19923;-62
2023/06/28 02:34:13;;;;;;;;;;;22.50;50.10;;;;;;5078067;28;19916;-62
2023/06/28 02:36:38;;;;;;;;;;;22.50;50.10;;;;;;5077599;28;19915;-62
2023/06/28 02:39:04;;;;;;;;;;;22.50;50.10;;;;;;5077793;28;20008;-62
2023/06/28 02:41:29;;;;;;;;;;;22.50;50.10;;;;;;5077524;28;19916;-62
2023/06/28 02:43:55;;;;;;;;;;;22.50;50.10;;;;;;5095761;28;19923;-62
2023/06/28 02:46:20;;;;;;;;;;;22.50;50.10;;;;;;5077354;28;19924;-62
2023/06/28 02:48:46;;;;;;;;;;;22.50;50.10;;;;;;5077740;28;19916;-62
2023/06/28 02:51:11;;;;;;;;;;;22.40;50.10;;;;;;5095600;28;19969;-62
2023/06/28 02:53:37;;;;;;;;;;;22.50;50.10;;;;;;5077697;28;20359;-62
2023/06/28 02:56:02;;;;;;;;;;;22.40;50.10;;;;;;5077233;28;20026;-62
2023/06/28 02:58:28;;;;;;;;;;;22.40;50.10;;;;;;5077445;28;19920;-62
2023/06/28 03:00:54;;;;;;;;;;;22.40;50.10;;;;;;5077199;28;19922;-62
2023/06/28 03:03:20;;;;;;;;;;;22.40;50.20;;;;;;5076711;28;20162;-62
2023/06/28 03:05:46;;;;;;;;;;;22.40;50.20;;;;;;5076898;28;19916;-62
2023/06/28 03:08:12;;;;;;;;;;;22.40;50.20;;;;;;5077338;28;19916;-62
2023/06/28 03:10:37;;;;;;;;;;;22.40;50.20;;;;;;5095071;28;19916;-62
2023/06/28 03:13:03;;;;;;;;;;;22.40;50.30;;;;;;5077250;28;19916;-62
2023/06/28 03:15:29;;;;;;;;;;;22.40;50.30;;;;;;5095197;28;19923;-62
2023/06/28 03:17:54;;;;;;;;;;;22.40;50.30;;;;;;5077209;28;19916;-62
2023/06/28 03:20:20;;;;;;;;;;;22.40;50.30;;;;;;5076921;28;19916;-62
2023/06/28 03:22:45;;;;;;;;;;;22.40;50.30;;;;;;5094956;28;20046;-62
2023/06/28 03:25:11;;;;;;;;;;;22.40;50.30;;;;;;5094687;28;19920;-62
2023/06/28 03:27:36;;;;;;;;;;;22.40;50.30;;;;;;5076632;28;20186;-62
2023/06/28 03:30:02;;;;;;;;;;;22.40;50.40;;;;;;5094834;28;19927;-62
2023/06/28 03:32:27;;;;;;;;;;;22.30;50.30;;;;;;5059248;28;19920;-62
2023/06/28 03:34:53;;;;;;;;;;;22.30;50.40;;;;;;5076815;28;20294;-62
2023/06/28 03:37:18;;;;;;;;;;;22.30;50.40;;;;;;5093875;28;20019;-62
2023/06/28 03:39:44;;;;;;;;;;;22.30;50.40;;;;;;5076780;28;19916;-62
2023/06/28 03:42:09;;;;;;;;;;;22.30;50.40;;;;;;5094519;28;19916;-62
2023/06/28 03:44:35;;;;;;;;;;;22.30;50.40;;;;;;5076266;28;19922;-62
2023/06/28 03:47:00;;;;;;;;;;;22.30;50.50;;;;;;5076520;28;19924;-62
2023/06/28 03:49:26;;;;;;;;;;;22.30;50.50;;;;;;5094565;28;19916;-62
2023/06/28 03:51:51;;;;;;;;;;;22.30;50.50;;;;;;5076610;28;20308;-62
2023/06/28 03:54:17;;;;;;;;;;;22.30;50.50;;;;;;5076513;28;19916;-62
2023/06/28 03:56:42;;;;;;;;;;;22.30;50.50;;;;;;5076373;28;19999;-62
2023/06/28 03:59:08;;;;;;;;;;;22.30;50.50;;;;;;5076037;28;19923;-63
2023/06/28 04:01:33;;;;;;;;;;;22.30;50.50;;;;;;5076447;28;19965;-62
2023/06/28 04:03:59;;;;;;;;;;;22.30;50.50;;;;;;5075965;28;19923;-63
2023/06/28 04:06:24;;;;;;;;;;;22.30;51.30;;;;;;5094125;28;20278;-63
2023/06/28 04:08:52;;;;;;;;;;;22.30;50.60;;;;;;5094036;28;19988;-63
2023/06/28 04:11:18;;;;;;;;;;;22.30;50.50;;;;;;5076164;28;19965;-63
2023/06/28 04:13:43;;;;;;;;;;;22.30;50.60;;;;;;5075780;28;19924;-63
2023/06/28 04:16:09;;;;;;;;;;;22.30;50.60;;;;;;5093823;28;19916;-64
2023/06/28 04:18:34;;;;;;;;;;;22.30;50.60;;;;;;5076045;28;20460;-63
2023/06/28 04:21:00;;;;;;;;;;;22.30;50.60;;;;;;5075867;28;19916;-63
2023/06/28 04:23:25;;;;;;;;;;;22.30;50.70;;;;;;5093807;28;19920;-63
2023/06/28 04:25:52;;;;;;;;;;;22.30;50.70;;;;;;5075316;28;19931;-63
2023/06/28 04:28:17;;;;;;;;;;;22.30;50.70;;;;;;5075479;28;19999;-63
2023/06/28 04:30:43;;;;;;;;;;;22.30;50.70;;;;;;5075486;28;19916;-64
2023/06/28 04:33:09;;;;;;;;;;;22.20;50.70;;;;;;5075830;28;19915;-63
2023/06/28 04:35:35;;;;;;;;;;;22.20;50.70;;;;;;5093649;28;19916;-64
2023/06/28 04:38:03;;;;;;;;;;;22.30;50.80;;;;;;5075722;28;19927;-63
2023/06/28 04:40:30;;;;;;;;;;;22.20;50.80;;;;;;5093436;28;20048;-63
2023/06/28 04:42:55;;;;;;;;;;;22.20;50.80;;;;;;5074560;28;19920;-63
2023/06/28 04:45:21;;;;;;;;;;;22.20;50.80;;;;;;5093517;28;19920;-63
2023/06/28 04:47:46;;;;;;;;;;;22.20;50.80;;;;;;5075303;28;19922;-63
2023/06/28 04:50:12;;;;;;;;;;;22.20;50.90;;;;;;5075387;28;20272;-63
2023/06/28 04:52:37;;;;;;;;;;;22.20;50.80;;;;;;5092357;28;19916;-63
2023/06/28 04:55:03;;;;;;;;;;;22.20;50.90;;;;;;5092011;28;20496;-63
2023/06/28 04:57:28;;;;;;;;;;;22.20;50.90;;;;;;5074910;28;19966;-63
2023/06/28 04:59:55;;;;;;;;;;;22.20;50.90;;;;;;5075178;28;19923;-63
2023/06/28 05:02:24;;;;;;;;;;;22.20;51.00;;;;;;5075197;28;20309;-63
2023/06/28 05:04:51;;;;;;;;;;;22.20;50.90;;;;;;5075193;28;19915;-63
2023/06/28 05:07:17;;;;;;;;;;;22.20;51.00;;;;;;5074844;28;19923;-64
2023/06/28 05:09:42;;;;;;;;;;;22.10;51.00;;;;;;5075115;28;20363;-63
2023/06/28 05:12:08;;;;;;;;;;;22.10;50.90;;;;;;5074750;28;19916;-63
2023/06/28 05:14:33;;;;;;;;;;;22.20;51.00;;;;;;5091654;28;19944;-63
2023/06/28 05:16:59;;;;;;;;;;;22.10;51.00;;;;;;5075018;28;19916;-63
2023/06/28 05:19:25;;;;;;;;;;;22.20;51.00;;;;;;5075069;28;19916;-63
2023/06/28 05:21:50;;;;;;;;;;;22.10;51.00;;;;;;5075099;28;20421;-64
2023/06/28 05:24:16;;;;;;;;;;;22.20;51.00;;;;;;5091330;28;19959;-63
2023/06/28 05:26:42;;;;;;;;;;;22.20;51.10;;;;;;5091549;28;19920;-63
2023/06/28 05:29:08;;;;;;;;;;;22.20;51.10;;;;;;5074466;28;19923;-63
2023/06/28 05:31:35;;;;;;;;;;;22.10;51.00;;;;;;5091319;28;19916;-63
2023/06/28 05:34:02;;;;;;;;;;;22.10;51.00;;;;;;5091647;28;19927;-63
2023/06/28 05:36:27;;;;;;;;;;;22.20;51.10;;;;;;5074559;28;19916;-63
2023/06/28 05:38:53;;;;;;;;;;;22.20;51.10;;;;;;5074485;28;19980;-63
2023/06/28 05:41:18;;;;;;;;;;;22.20;51.10;;;;;;5072062;28;19963;-63
2023/06/28 05:43:45;;;;;;;;;;;22.20;51.10;;;;;;5088731;28;19916;-64
2023/06/28 05:46:10;;;;;;;;;;;22.10;51.10;;;;;;5055890;28;19928;-63
2023/06/28 05:48:36;;;;;;;;;;;22.20;51.20;;;;;;5061444;28;19928;-63
2023/06/28 05:51:01;;;;;;;;;;;22.20;51.30;;;;;;5065500;28;19920;-63
2023/06/28 05:53:29;;;;;;;;;;;22.20;51.20;;;;;;5065083;28;19928;-65
2023/06/28 05:55:54;;;;;;;;;;;22.10;51.20;;;;;;5086819;28;20011;-65
2023/06/28 05:58:20;;;;;;;;;;;22.10;51.20;;;;;;5075144;28;19995;-65
2023/06/28 06:00:45;;;;;;;;;;;22.10;51.20;;;;;;5070936;28;19916;-64
2023/06/28 06:03:11;;;;;;;;;;;22.20;51.50;;;;;;5069083;28;19923;-65
2023/06/28 06:05:37;;;;;;;;;;;22.20;51.80;;;;;;5088704;28;19923;-65
2023/06/28 06:08:03;;;;;;;;;;;22.20;52.20;;;;;;5055522;28;20034;-65
2023/06/28 06:10:28;;;;;;;;;;;22.20;52.40;;;;;;5077576;28;19926;-65
2023/06/28 06:12:54;;;;;;;;;;;22.20;52.80;;;;;;5056858;28;19926;-65
2023/06/28 06:15:20;;;;;;;;;;;22.20;52.90;;;;;;5055133;28;19916;-64
2023/06/28 06:17:46;;;;;;;;;;;22.20;53.20;;;;;;5056016;28;19920;-65
2023/06/28 06:20:15;;;;;;;;;;;22.20;53.50;;;;;;5070266;28;19920;-64
2023/06/28 06:22:41;;;;;;;;;;;22.20;53.50;;;;;;5059317;28;20080;-64
2023/06/28 06:25:06;;;;;;;;;;;22.20;53.60;;;;;;5058010;28;19928;-64
2023/06/28 06:27:32;;;;;;;;;;;22.20;54.00;;;;;;5077956;28;19924;-64
2023/06/28 06:29:57;;;;;;;;;;;22.20;54.00;;;;;;5057927;28;19924;-65
2023/06/28 06:32:23;;;;;;;;;;;22.20;54.00;;;;;;5075465;28;20366;-64
2023/06/28 06:34:48;;;;;;;;;;;22.20;54.50;;;;;;5059322;28;19919;-64
2023/06/28 06:37:14;;;;;;;;;;;22.20;54.20;;;;;;5058884;28;19955;-64
2023/06/28 06:39:40;;;;;;;;;;;22.20;54.50;;;;;;5060619;28;20014;-63
2023/06/28 06:42:06;;;;;;;;;;;22.20;54.70;;;;;;5049321;28;20306;-63
2023/06/28 06:44:31;;;;;;;;;;;22.20;54.80;;;;;;5059260;28;20014;-63
2023/06/28 06:46:57;;;;;;;;;;;22.20;55.10;;;;;;5062533;28;20543;-63
2023/06/28 06:49:22;;;;;;;;;;;22.20;55.00;;;;;;5055262;28;19931;-64
2023/06/28 06:51:48;;;;;;;;;;;22.20;55.00;;;;;;5054613;28;19932;-63
2023/06/28 06:54:13;;;;;;;;;;;22.20;55.10;;;;;;5057005;28;19920;-64
2023/06/28 06:56:39;;;;;;;;;;;22.20;55.20;;;;;;5073025;28;20361;-63
2023/06/28 06:59:04;;;;;;;;;;;22.20;55.30;;;;;;5071070;28;19917;-63
2023/06/28 07:01:32;;;;;;;;;;;22.30;55.30;;;;;;5058028;28;20287;-63
2023/06/28 07:03:57;;;;;;;;;;;22.20;55.00;;;;;;5068092;28;19924;-63
2023/06/28 07:06:23;;;;;;;;;;;22.20;55.50;;;;;;5066105;28;19928;-63
2023/06/28 07:08:49;;;;;;;;;;;22.20;55.60;;;;;;5066940;28;20023;-63
2023/06/28 07:11:14;;;;;;;;;;;22.30;55.60;;;;;;5073075;28;20586;-64
2023/06/28 07:13:40;;;;;;;;;;;22.20;55.70;;;;;;5076081;28;19917;-63
2023/06/28 07:16:05;;;;;;;;;;;22.30;55.60;;;;;;5057976;28;20011;-63
2023/06/28 07:18:31;;;;;;;;;;;22.30;55.60;;;;;;5067443;28;19925;-64
2023/06/28 07:20:56;;;;;;;;;;;22.30;55.20;;;;;;5071207;28;20108;-64
2023/06/28 07:23:22;;;;;;;;;;;22.30;55.60;;;;;;5073314;28;19924;-64
2023/06/28 07:25:47;;;;;;;;;;;22.30;55.80;;;;;;5089684;27;19928;-64
2023/06/28 07:28:13;;;;;;;;;;;22.30;55.80;;;;;;5082254;28;19928;-65
2023/06/28 07:30:54;;;;;;;;;;;22.30;55.20;;;;;;5093617;28;19922;-63
2023/06/28 07:33:21;;;;;;;;;;;22.20;55.50;;;;;;5094491;27;19965;-62
2023/06/28 07:35:47;;;;;;;;;;;22.30;55.90;;;;;;5094409;27;19923;-63
2023/06/28 07:38:12;;;;;;;;;;;22.30;56.00;;;;;;5076148;28;19923;-63
2023/06/28 07:40:38;;;;;;;;;;;22.30;56.10;;;;;;5088350;28;20008;-64
2023/06/28 07:43:03;;;;;;;;;;;22.30;56.10;;;;;;5087582;28;19962;-62
2023/06/28 07:45:29;;;;;;;;;;;22.30;56.10;;;;;;5094420;28;19928;-63
2023/06/28 07:47:54;;;;;;;;;;;22.30;56.10;;;;;;5092959;28;20024;-62
2023/06/28 07:50:22;;;;;;;;;;;22.30;57.00;;;;;;5092867;27;19923;-62
2023/06/28 07:52:47;;;;;;;;;;;22.30;56.30;;;;;;5077323;28;19947;-63
2023/06/28 07:55:13;;;;;;;;;;;22.30;56.10;;;;;;5073942;28;20378;-63
2023/06/28 07:57:38;;;;;;;;;;;22.30;56.40;;;;;;5075829;28;19965;-61
2023/06/28 08:00:05;;;;;;;;;;;22.30;56.40;;;;;;5084856;27;21916;-63
2023/06/28 08:02:30;;;;;;;;;;;22.30;56.80;;;;;;5074280;27;20511;-63
2023/06/28 08:04:58;;;;;;;;;;;22.30;56.70;;;;;;5093466;28;19920;-64
2023/06/28 08:07:24;;;;;;;;;;;22.30;56.50;;;;;;5080991;28;20154;-63
2023/06/28 08:09:49;;;;;;;;;;;22.30;56.60;;;;;;5075321;27;20046;-64
2023/06/28 08:12:15;;;;;;;;;;;22.30;56.90;;;;;;5093251;28;19926;-63
2023/06/28 08:14:40;;;;;;;;;;;22.30;56.50;;;;;;5090091;28;19920;-63
2023/06/28 08:17:06;;;;;;;;;;;22.30;57.20;;;;;;5076274;28;19923;-66
2023/06/28 08:19:31;;;;;;;;;;;22.30;57.20;;;;;;5093283;28;19976;-64
2023/06/28 08:21:58;;;;;;;;;;;22.30;57.40;;;;;;5091865;28;19930;-63
2023/06/28 08:24:23;;;;;;;;;;;22.30;57.50;;;;;;5080740;28;20081;-63
2023/06/28 08:26:49;;;;;;;;;;;22.30;57.50;;;;;;5073049;28;19992;-63
2023/06/28 08:29:16;;;;;;;;;;;22.30;57.60;;;;;;5071493;28;19963;-63
2023/06/28 08:31:42;;;;;;;;;;;22.20;57.30;;;;;;5072440;28;20383;-63
2023/06/28 08:34:08;;;;;;;;;;;22.20;57.60;;;;;;5070481;28;19917;-63
2023/06/28 08:36:33;;;;;;;;;;;22.30;58.00;;;;;;5068097;28;20816;-63
2023/06/28 08:38:59;;;;;;;;;;;22.30;57.90;;;;;;5051438;28;19925;-62
2023/06/28 08:41:24;;;;;;;;;;;22.30;57.80;;;;;;5051913;28;20002;-62
2023/06/28 08:43:50;;;;;;;;;;;22.20;57.50;;;;;;5050316;28;20268;-63
2023/06/28 08:46:16;;;;;;;;;;;22.30;57.90;;;;;;5054743;28;20390;-63
2023/06/28 08:48:43;;;;;;;;;;;22.20;58.20;;;;;;5065775;28;19926;-63
2023/06/28 08:51:09;;;;;;;;;;;22.30;58.30;;;;;;5051202;28;19955;-66
2023/06/28 08:53:35;;;;;;;;;;;22.20;58.40;;;;;;5054226;28;19924;-63
2023/06/28 08:56:01;;;;;;;;;;;22.30;58.60;;;;;;5054679;28;19924;-62
2023/06/28 08:58:27;;;;;;;;;;;22.30;59.00;;;;;;5072508;28;20010;-62
2023/06/28 09:00:53;;;;;;;;;;;22.30;59.10;;;;;;5063235;28;19924;-63
2023/06/28 09:03:18;;;;;;;;;;;22.30;58.90;;;;;;5053037;28;19927;-62
2023/06/28 09:05:45;;;;;;;;;;;22.30;58.80;;;;;;5060636;28;19935;-62
2023/06/28 09:08:10;;;;;;;;;;;22.40;59.00;;;;;;5075147;28;19928;-63
2023/06/28 09:10:36;;;;;;;;;;;22.40;58.90;;;;;;5051641;28;20214;-62
2023/06/28 09:13:02;;;;;;;;;;;22.40;58.80;;;;;;5073451;28;20289;-62
2023/06/28 09:15:28;;;;;;;;;;;22.40;57.70;;;;;;5069240;28;19954;-63
2023/06/28 09:17:53;;;;;;;;;;;22.40;58.30;;;;;;5052503;28;19939;-63
2023/06/28 09:20:20;;;;;;;;;;;22.40;58.30;;;;;;5055189;28;20007;-61
2023/06/28 09:23:00;;;;;;;;;;;22.40;58.40;;;;;;5055096;28;19924;-62
2023/06/28 09:25:27;;;;;;;;;;;22.30;58.40;;;;;;5067733;28;20287;-62
2023/06/28 09:27:54;;;;;;;;;;;22.30;58.10;;;;;;5068210;28;20014;-62
2023/06/28 09:30:20;;;;;;;;;;;22.30;58.30;;;;;;5057147;28;19936;-62
2023/06/28 09:32:50;;;;;;;;;;;22.30;58.10;;;;;;5072233;28;19920;-63
2023/06/28 09:35:16;;;;;;;;;;;22.40;58.30;;;;;;5065470;28;19928;-63
2023/06/28 09:37:42;;;;;;;;;;;22.40;58.60;;;;;;5050496;28;20291;-64
2023/06/28 09:40:07;;;;;;;;;;;22.40;58.70;;;;;;5069971;28;19924;-63
2023/06/28 09:42:48;;;;;;;;;;;22.40;59.10;;;;;;5069189;28;19924;-62
2023/06/28 09:45:23;;;;;;;;;;;22.40;58.30;;;;;;5069351;28;20007;-65
2023/06/28 09:47:53;;;;;;;;;;;22.40;58.90;;;;;;5070553;28;20031;-64
2023/06/28 09:50:18;;;;;;;;;;;22.40;59.50;;;;;;5050063;28;20632;-65
2023/06/28 09:52:44;;;;;;;;;;;22.40;59.40;;;;;;5072817;28;19921;-62
2023/06/28 09:55:09;;;;;;;;;;;22.40;59.40;;;;;;5070271;28;19924;-63
2023/06/28 09:57:35;;;;;;;;;;;22.40;59.40;;;;;;5053810;28;19983;-63
2023/06/28 10:00:01;;;;;;;;;;;22.40;59.40;;;;;;5047146;28;19935;-64
2023/06/28 10:02:27;;;;;;;;;;;22.40;59.70;;;;;;5062306;28;19947;-63
2023/06/28 10:04:53;;;;;;;;;;;22.40;59.70;;;;;;5087159;28;19924;-64
2023/06/28 10:07:19;;;;;;;;;;;22.40;59.80;;;;;;5071442;28;19928;-62
2023/06/28 10:09:44;;;;;;;;;;;22.50;59.60;;;;;;5066287;28;20469;-64
2023/06/28 10:12:14;;;;;;;;;;;22.50;60.30;;;;;;5069894;28;19947;-61
2023/06/28 10:14:41;;;;;;;;;;;22.50;60.10;;;;;;5067002;28;19924;-63
2023/06/28 10:17:08;;;;;;;;;;;22.50;60.30;;;;;;5048262;28;21048;-61
2023/06/28 10:19:33;;;;;;;;;;;22.50;60.20;;;;;;5065913;28;19923;-61
2023/06/28 10:21:59;;;;;;;;;;;22.50;60.20;;;;;;5064973;28;19931;-61
2023/06/28 10:24:31;;;;;;;;;;;22.50;60.20;;;;;;5062911;28;20647;-62
2023/06/28 10:27:00;;;;;;;;;;;22.50;60.20;;;;;;5064000;28;21050;-61
2023/06/28 10:29:26;;;;;;;;;;;22.50;59.80;;;;;;5062471;28;20011;-61
2023/06/28 10:31:52;;;;;;;;;;;22.50;60.20;;;;;;5044388;28;20484;-64
2023/06/28 10:34:18;;;;;;;;;;;22.50;60.00;;;;;;5061506;28;19924;-64
2023/06/28 10:36:44;;;;;;;;;;;22.50;59.70;;;;;;5065517;28;19920;-63
2023/06/28 10:39:09;;;;;;;;;;;22.60;59.80;;;;;;5072075;28;20140;-64
2023/06/28 10:41:35;;;;;;;;;;;22.50;59.40;;;;;;5071148;28;19920;-64
2023/06/28 10:44:03;;;;;;;;;;;22.50;59.50;;;;;;5088038;28;19998;-64
2023/06/28 10:46:28;;;;;;;;;;;22.50;59.80;;;;;;5093041;28;20406;-64
2023/06/28 10:48:54;;;;;;;;;;;22.50;59.90;;;;;;5096830;28;19919;-64
2023/06/28 10:51:22;;;;;;;;;;;22.50;59.80;;;;;;5098644;28;20028;-68
2023/06/28 10:54:05;;;;;;;;;;;22.50;59.80;;;;;;5096649;28;19920;-65
2023/06/28 10:56:42;;;;;;;;;;;22.50;60.10;;;;;;5096428;28;19920;-64
2023/06/28 10:59:08;;;;;;;;;;;22.50;59.50;;;;;;5098461;28;20523;-64
2023/06/28 11:01:38;;;;;;;;;;;22.50;59.60;;;;;;5094071;28;19921;-62
2023/06/28 11:04:11;;;;;;;;;;;22.50;59.90;;;;;;5096066;28;20374;-61
2023/06/28 11:06:39;;;;;;;;;;;22.50;60.00;;;;;;5095933;28;19924;-62
2023/06/28 11:09:11;;;;;;;;;;;22.50;59.80;;;;;;5095674;28;19920;-61
2023/06/28 11:11:37;;;;;;;;;;;22.50;60.00;;;;;;5093596;28;19920;-61
2023/06/28 11:14:17;;;;;;;;;;;22.50;59.90;;;;;;5091994;28;20473;-62
2023/06/28 11:16:43;;;;;;;;;;;22.50;59.90;;;;;;5102509;28;20359;-61
2023/06/28 11:19:18;;;;;;;;;;;22.50;59.30;;;;;;5089307;28;19927;-61
2023/06/28 11:21:46;;;;;;;;;;;22.50;60.00;;;;;;5096805;28;20011;-62
2023/06/28 11:24:12;;;;;;;;;;;22.50;60.00;;;;;;5099140;28;20350;-60
2023/06/28 11:26:38;;;;;;;;;;;22.50;60.00;;;;;;5100323;28;19927;-66
2023/06/28 11:29:19;;;;;;;;;;;22.50;60.40;;;;;;5100147;28;19916;-62
2023/06/28 11:31:47;;;;;;;;;;;22.50;60.10;;;;;;5099431;28;19915;-64
2023/06/28 11:34:13;;;;;;;;;;;22.50;60.10;;;;;;5099901;28;19915;-63
2023/06/28 11:36:39;;;;;;;;;;;22.50;59.70;;;;;;5098472;28;20002;-62
2023/06/28 11:39:06;;;;;;;;;;;22.50;59.60;;;;;;5101545;28;20410;-63
2023/06/28 11:41:34;;;;;;;;;;;22.50;59.80;;;;;;5111896;28;19947;-63
2023/06/28 11:44:04;;;;;;;;;;;22.50;59.90;;;;;;5104532;28;19966;-63
2023/06/28 11:46:31;;;;;;;;;;;22.50;59.60;;;;;;5090116;28;19920;-62
2023/06/28 11:48:59;;;;;;;;;;;22.40;59.60;;;;;;5095645;28;20438;-60
2023/06/28 11:51:25;;;;;;;;;;;22.50;60.20;;;;;;5100686;28;19916;-60
2023/06/28 11:53:51;;;;;;;;;;;22.50;59.70;;;;;;5092014;28;19916;-61
2023/06/28 11:56:17;;;;;;;;;;;22.50;59.70;;;;;;5099609;28;19915;-61
2023/06/28 11:58:42;;;;;;;;;;;22.50;59.60;;;;;;5107557;28;19916;-61
2023/06/28 12:01:18;;;;;;;;;;;22.50;59.60;;;;;;5104919;28;20384;-60
2023/06/28 12:03:43;;;;;;;;;;;22.50;60.00;;;;;;5099859;28;20266;-61
2023/06/28 12:06:10;;;;;;;;;;;22.50;59.50;;;;;;5099834;28;19923;-61
2023/06/28 12:08:37;;;;;;;;;;;22.50;59.60;;;;;;5090742;28;19916;-61
2023/06/28 12:11:17;;;;;;;;;;;22.50;59.60;;;;;;5093282;28;19920;-60
2023/06/28 12:13:43;;;;;;;;;;;22.50;59.20;;;;;;5099834;28;19941;-61
2023/06/28 12:19:06;;;;;;;;;;;22.50;59.60;;;;;;5072440;28;19913;-59
2023/06/28 12:21:32;;;;;;;;;;;22.50;59.70;;;;;;5074968;28;20377;-59
2023/06/28 12:24:20;;;;;;;;;;;22.50;59.80;;;;;;5076081;28;20020;-59
2023/06/28 12:26:49;;;;;;;;;;;22.50;59.80;;;;;;5062826;28;19916;-60
2023/06/28 12:29:18;;;;;;;;;;;22.50;59.90;;;;;;5071605;28;19917;-60
2023/06/28 12:31:46;;;;;;;;;;;22.50;59.50;;;;;;5069686;28;19927;-60
2023/06/28 12:34:19;;;;;;;;;;;22.50;59.50;;;;;;5073587;28;19920;-59
2023/06/28 12:36:48;;;;;;;;;;;22.50;59.60;;;;;;5076151;28;20354;-59
2023/06/28 12:39:20;;;;;;;;;;;22.60;59.50;;;;;;5069726;28;20188;-61
2023/06/28 12:44:56;;;;;;;;;;;22.60;59.70;;;;;;5128692;27;20215;-62
2023/06/28 12:47:29;;;;;;;;;;;22.60;59.70;;;;;;5113786;28;19916;-62
2023/06/28 12:49:55;;;;;;;;;;;22.60;59.80;;;;;;5108269;28;20005;-62
2023/06/28 12:52:22;;;;;;;;;;;22.60;59.40;;;;;;5111190;28;19947;-62
2023/06/28 12:54:48;;;;;;;;;;;22.60;59.30;;;;;;5108842;28;19922;-61
2023/06/28 12:57:13;;;;;;;;;;;22.60;59.30;;;;;;5114828;28;20007;-59
2023/06/28 12:59:40;;;;;;;;;;;22.60;59.60;;;;;;5127649;28;20278;-59
2023/06/28 13:02:06;;;;;;;;;;;22.60;59.30;;;;;;5127498;28;19920;-59
2023/06/28 13:04:34;;;;;;;;;;;22.60;59.30;;;;;;5128017;27;20375;-59
2023/06/28 13:06:59;;;;;;;;;;;22.60;58.90;;;;;;5126588;28;20431;-59
2023/06/28 13:09:25;;;;;;;;;;;22.60;59.10;;;;;;5126973;28;19924;-59
2023/06/28 13:11:50;;;;;;;;;;;22.60;58.90;;;;;;5161137;27;20370;-59
2023/06/28 13:14:16;;;;;;;;;;;22.50;58.90;;;;;;5127232;28;20019;-59
2023/06/28 13:16:42;;;;;;;;;;;22.60;58.50;;;;;;5127770;28;19926;-59
2023/06/28 13:19:08;;;;;;;;;;;22.50;58.80;;;;;;5129015;28;19927;-59
2023/06/28 13:21:33;;;;;;;;;;;22.50;58.60;;;;;;5111877;28;20390;-59
2023/06/28 13:23:59;;;;;;;;;;;22.50;58.50;;;;;;5128489;28;20294;-59
2023/06/28 13:26:24;;;;;;;;;;;22.50;58.80;;;;;;5107741;28;19924;-59
2023/06/28 13:28:50;;;;;;;;;;;22.50;58.70;;;;;;5107824;28;20314;-59
2023/06/28 13:31:15;;;;;;;;;;;22.50;58.80;;;;;;5107735;28;19920;-59
2023/06/28 13:33:41;;;;;;;;;;;22.50;58.50;;;;;;5107850;28;19924;-59
2023/06/28 13:36:06;;;;;;;;;;;22.50;58.70;;;;;;5108817;28;19920;-59
2023/06/28 13:38:32;;;;;;;;;;;22.50;58.60;;;;;;5107745;28;20316;-59
2023/06/28 13:40:57;;;;;;;;;;;22.50;58.50;;;;;;5107568;28;19974;-59
2023/06/28 13:43:23;;;;;;;;;;;22.50;58.50;;;;;;5107161;28;19946;-59
2023/06/28 13:45:48;;;;;;;;;;;22.50;58.70;;;;;;5108547;28;20409;-59
2023/06/28 13:48:14;;;;;;;;;;;22.50;58.50;;;;;;5107662;28;19926;-59
2023/06/28 13:50:39;;;;;;;;;;;22.50;58.70;;;;;;5107687;28;19920;-59
2023/06/28 13:53:05;;;;;;;;;;;22.50;58.60;;;;;;5107108;28;19920;-59
2023/06/28 13:55:30;;;;;;;;;;;22.50;58.50;;;;;;5131104;27;19924;-59
2023/06/28 13:57:56;;;;;;;;;;;22.50;58.60;;;;;;5128071;27;19927;-59
2023/06/28 14:00:22;;;;;;;;;;;22.50;58.50;;;;;;5094894;28;20132;-59
2023/06/28 14:02:48;;;;;;;;;;;22.50;58.20;;;;;;5093560;28;19927;-59
2023/06/28 14:05:13;;;;;;;;;;;22.50;58.50;;;;;;5127638;27;19920;-59
2023/06/28 14:07:39;;;;;;;;;;;22.40;58.50;;;;;;5093672;28;20024;-59
2023/06/28 14:10:06;;;;;;;;;;;22.50;58.60;;;;;;5093450;28;20017;-59
2023/06/28 14:12:31;;;;;;;;;;;22.50;58.60;;;;;;5094606;28;19920;-59
2023/06/28 14:14:57;;;;;;;;;;;22.40;58.50;;;;;;5093910;28;19927;-59
2023/06/28 14:17:22;;;;;;;;;;;22.40;58.10;;;;;;5094511;28;19924;-59